sensor_id;sensor_type;location;lat;lon;timestamp;temperature;humidity
51878;SHT31;37911;51.526;11.536;2023-07-31T00:00:10;18.10;65.64
51878;SHT31;37911;51.526;11.536;2023-07-31T00:03:14;18.09;65.74
51878;SHT31;37911;51.526;11.536;2023-07-31T00:06:17;18.13;65.18
51878;SHT31;37911;51.526;11.536;2023-07-31T00:09:21;18.05;65.65
51878;SHT31;37911;51.526;11.536;2023-07-31T00:12:27;18.05;65.45
51878;SHT31;37911;51.526;11.536;2023-07-31T00:15:30;17.99;65.53
51878;SHT31;37911;51.526;11.536;2023-07-31T00:18:34;18.05;65.68
51878;SHT31;37911;51.526;11.536;2023-07-31T00:21:37;17.99;65.59
51878;SHT31;37911;51.526;11.536;2023-07-31T00:24:40;17.99;65.72
51878;SHT31;37911;51.526;11.536;2023-07-31T00:27:46;17.92;65.75
51878;SHT31;37911;51.526;11.536;2023-07-31T00:30:50;17.85;66.10
51878;SHT31;37911;51.526;11.536;2023-07-31T00:33:53;17.88;66.01
51878;SHT31;37911;51.526;11.536;2023-07-31T00:36:57;17.81;66.22
51878;SHT31;37911;51.526;11.536;2023-07-31T00:40:00;17.82;66.45
51878;SHT31;37911;51.526;11.536;2023-07-31T00:43:07;17.83;66.32
51878;SHT31;37911;51.526;11.536;2023-07-31T00:46:10;17.82;66.16
51878;SHT31;37911;51.526;11.536;2023-07-31T00:49:15;17.85;66.09
51878;SHT31;37911;51.526;11.536;2023-07-31T00:52:19;17.86;65.86
51878;SHT31;37911;51.526;11.536;2023-07-31T00:55:23;17.83;66.01
51878;SHT31;37911;51.526;11.536;2023-07-31T00:58:30;17.77;66.23
51878;SHT31;37911;51.526;11.536;2023-07-31T01:01:33;17.67;66.73
51878;SHT31;37911;51.526;11.536;2023-07-31T01:04:38;17.60;67.47
51878;SHT31;37911;51.526;11.536;2023-07-31T01:07:49;17.72;67.55
51878;SHT31;37911;51.526;11.536;2023-07-31T01:10:59;17.65;67.94
51878;SHT31;37911;51.526;11.536;2023-07-31T01:14:07;17.72;67.86
51878;SHT31;37911;51.526;11.536;2023-07-31T01:17:10;17.71;68.85
51878;SHT31;37911;51.526;11.536;2023-07-31T01:20:20;17.75;68.91
51878;SHT31;37911;51.526;11.536;2023-07-31T01:23:57;17.72;69.30
51878;SHT31;37911;51.526;11.536;2023-07-31T01:27:10;17.68;69.66
51878;SHT31;37911;51.526;11.536;2023-07-31T01:30:17;17.69;69.92
51878;SHT31;37911;51.526;11.536;2023-07-31T01:33:22;17.69;70.70
51878;SHT31;37911;51.526;11.536;2023-07-31T01:36:26;17.61;71.92
51878;SHT31;37911;51.526;11.536;2023-07-31T01:39:30;17.54;72.84
51878;SHT31;37911;51.526;11.536;2023-07-31T01:42:36;17.37;73.79
51878;SHT31;37911;51.526;11.536;2023-07-31T01:45:39;17.31;74.25
51878;SHT31;37911;51.526;11.536;2023-07-31T01:48:43;17.26;75.03
51878;SHT31;37911;51.526;11.536;2023-07-31T01:51:46;17.23;75.57
51878;SHT31;37911;51.526;11.536;2023-07-31T01:54:50;17.20;76.41
51878;SHT31;37911;51.526;11.536;2023-07-31T01:57:56;17.06;76.76
51878;SHT31;37911;51.526;11.536;2023-07-31T02:00:59;17.07;77.18
51878;SHT31;37911;51.526;11.536;2023-07-31T02:04:03;17.06;77.53
51878;SHT31;37911;51.526;11.536;2023-07-31T02:07:07;17.00;77.33
51878;SHT31;37911;51.526;11.536;2023-07-31T02:10:10;16.96;77.62
51878;SHT31;37911;51.526;11.536;2023-07-31T02:13:16;17.00;77.22
51878;SHT31;37911;51.526;11.536;2023-07-31T02:16:20;17.02;77.52
51878;SHT31;37911;51.526;11.536;2023-07-31T02:19:23;17.02;77.41
51878;SHT31;37911;51.526;11.536;2023-07-31T02:22:27;17.07;77.25
51878;SHT31;37911;51.526;11.536;2023-07-31T02:25:30;17.03;77.15
51878;SHT31;37911;51.526;11.536;2023-07-31T02:28:36;17.04;77.18
51878;SHT31;37911;51.526;11.536;2023-07-31T02:31:43;17.04;77.36
51878;SHT31;37911;51.526;11.536;2023-07-31T02:34:46;17.08;77.91
51878;SHT31;37911;51.526;11.536;2023-07-31T02:37:51;17.03;78.52
51878;SHT31;37911;51.526;11.536;2023-07-31T02:40:54;17.06;77.82
51878;SHT31;37911;51.526;11.536;2023-07-31T02:44:00;17.00;77.93
51878;SHT31;37911;51.526;11.536;2023-07-31T02:47:04;16.93;78.14
51878;SHT31;37911;51.526;11.536;2023-07-31T02:50:09;16.91;77.95
51878;SHT31;37911;51.526;11.536;2023-07-31T02:53:12;16.96;77.43
51878;SHT31;37911;51.526;11.536;2023-07-31T02:56:16;16.94;77.46
51878;SHT31;37911;51.526;11.536;2023-07-31T02:59:22;16.88;77.30
51878;SHT31;37911;51.526;11.536;2023-07-31T03:02:26;16.94;76.92
51878;SHT31;37911;51.526;11.536;2023-07-31T03:05:29;16.91;77.01
51878;SHT31;37911;51.526;11.536;2023-07-31T03:08:33;16.94;76.84
51878;SHT31;37911;51.526;11.536;2023-07-31T03:11:36;16.96;77.17
51878;SHT31;37911;51.526;11.536;2023-07-31T03:14:42;16.97;76.76
51878;SHT31;37911;51.526;11.536;2023-07-31T03:17:46;17.02;76.77
51878;SHT31;37911;51.526;11.536;2023-07-31T03:20:49;16.97;76.19
51878;SHT31;37911;51.526;11.536;2023-07-31T03:23:53;17.03;76.76
51878;SHT31;37911;51.526;11.536;2023-07-31T03:26:57;16.94;77.03
51878;SHT31;37911;51.526;11.536;2023-07-31T03:30:05;16.90;76.71
51878;SHT31;37911;51.526;11.536;2023-07-31T03:33:08;16.86;76.73
51878;SHT31;37911;51.526;11.536;2023-07-31T03:36:12;16.83;76.77
51878;SHT31;37911;51.526;11.536;2023-07-31T03:39:16;16.86;76.75
51878;SHT31;37911;51.526;11.536;2023-07-31T03:42:19;16.86;76.36
51878;SHT31;37911;51.526;11.536;2023-07-31T03:45:27;16.83;76.44
51878;SHT31;37911;51.526;11.536;2023-07-31T03:48:31;16.80;76.37
51878;SHT31;37911;51.526;11.536;2023-07-31T03:51:35;16.80;76.21
51878;SHT31;37911;51.526;11.536;2023-07-31T03:54:38;16.87;75.74
51878;SHT31;37911;51.526;11.536;2023-07-31T03:57:42;16.90;75.69
51878;SHT31;37911;51.526;11.536;2023-07-31T04:00:48;16.91;75.56
51878;SHT31;37911;51.526;11.536;2023-07-31T04:03:51;16.93;75.55
51878;SHT31;37911;51.526;11.536;2023-07-31T04:06:55;16.93;75.64
51878;SHT31;37911;51.526;11.536;2023-07-31T04:09:59;16.93;75.61
51878;SHT31;37911;51.526;11.536;2023-07-31T04:13:04;16.93;75.68
51878;SHT31;37911;51.526;11.536;2023-07-31T04:16:10;16.86;76.39
51878;SHT31;37911;51.526;11.536;2023-07-31T04:19:13;16.87;76.99
51878;SHT31;37911;51.526;11.536;2023-07-31T04:22:17;16.76;78.34
51878;SHT31;37911;51.526;11.536;2023-07-31T04:25:20;16.66;79.39
51878;SHT31;37911;51.526;11.536;2023-07-31T04:28:24;16.69;79.57
51878;SHT31;37911;51.526;11.536;2023-07-31T04:31:30;16.69;79.60
51878;SHT31;37911;51.526;11.536;2023-07-31T04:34:34;16.62;79.76
51878;SHT31;37911;51.526;11.536;2023-07-31T04:37:37;16.63;80.39
51878;SHT31;37911;51.526;11.536;2023-07-31T04:40:42;16.59;80.21
51878;SHT31;37911;51.526;11.536;2023-07-31T04:43:45;16.60;80.66
51878;SHT31;37911;51.526;11.536;2023-07-31T04:46:51;16.52;81.05
51878;SHT31;37911;51.526;11.536;2023-07-31T04:49:55;16.55;80.72
51878;SHT31;37911;51.526;11.536;2023-07-31T04:52:58;16.57;80.84
51878;SHT31;37911;51.526;11.536;2023-07-31T04:56:02;16.52;81.05
51878;SHT31;37911;51.526;11.536;2023-07-31T04:59:06;16.55;81.13
51878;SHT31;37911;51.526;11.536;2023-07-31T05:02:12;16.57;80.74
51878;SHT31;37911;51.526;11.536;2023-07-31T05:05:16;16.56;81.28
51878;SHT31;37911;51.526;11.536;2023-07-31T05:08:19;16.49;81.68
51878;SHT31;37911;51.526;11.536;2023-07-31T05:11:23;16.59;81.53
51878;SHT31;37911;51.526;11.536;2023-07-31T05:14:26;16.56;81.37
51878;SHT31;37911;51.526;11.536;2023-07-31T05:17:32;16.55;81.25
51878;SHT31;37911;51.526;11.536;2023-07-31T05:20:36;16.55;81.54
51878;SHT31;37911;51.526;11.536;2023-07-31T05:23:39;16.56;81.28
51878;SHT31;37911;51.526;11.536;2023-07-31T05:26:42;16.59;81.09
51878;SHT31;37911;51.526;11.536;2023-07-31T05:29:46;16.59;80.95
51878;SHT31;37911;51.526;11.536;2023-07-31T05:32:52;16.62;80.76
51878;SHT31;37911;51.526;11.536;2023-07-31T05:35:55;16.72;80.81
51878;SHT31;37911;51.526;11.536;2023-07-31T05:38:59;16.79;80.02
51878;SHT31;37911;51.526;11.536;2023-07-31T05:42:06;16.83;79.69
51878;SHT31;37911;51.526;11.536;2023-07-31T05:45:10;16.90;79.44
51878;SHT31;37911;51.526;11.536;2023-07-31T05:48:16;16.96;79.23
51878;SHT31;37911;51.526;11.536;2023-07-31T05:51:20;17.02;78.98
51878;SHT31;37911;51.526;11.536;2023-07-31T05:54:23;17.08;78.52
51878;SHT31;37911;51.526;11.536;2023-07-31T05:57:26;17.17;78.25
51878;SHT31;37911;51.526;11.536;2023-07-31T06:00:30;17.23;77.92
51878;SHT31;37911;51.526;11.536;2023-07-31T06:03:36;17.31;77.07
51878;SHT31;37911;51.526;11.536;2023-07-31T06:06:41;17.31;77.38
51878;SHT31;37911;51.526;11.536;2023-07-31T06:09:44;17.37;77.23
51878;SHT31;37911;51.526;11.536;2023-07-31T06:12:47;17.44;77.01
51878;SHT31;37911;51.526;11.536;2023-07-31T06:15:51;17.44;76.65
51878;SHT31;37911;51.526;11.536;2023-07-31T06:18:57;17.47;76.71
51878;SHT31;37911;51.526;11.536;2023-07-31T06:22:01;17.61;76.65
51878;SHT31;37911;51.526;11.536;2023-07-31T06:25:05;17.65;75.94
51878;SHT31;37911;51.526;11.536;2023-07-31T06:28:08;17.67;76.08
51878;SHT31;37911;51.526;11.536;2023-07-31T06:31:12;17.82;75.59
51878;SHT31;37911;51.526;11.536;2023-07-31T06:34:18;17.85;74.68
51878;SHT31;37911;51.526;11.536;2023-07-31T06:37:22;17.91;74.00
51878;SHT31;37911;51.526;11.536;2023-07-31T06:40:25;18.01;73.68
51878;SHT31;37911;51.526;11.536;2023-07-31T06:43:29;18.14;73.39
51878;SHT31;37911;51.526;11.536;2023-07-31T06:46:32;18.26;72.86
51878;SHT31;37911;51.526;11.536;2023-07-31T06:49:38;18.23;72.95
51878;SHT31;37911;51.526;11.536;2023-07-31T06:52:42;18.30;72.71
51878;SHT31;37911;51.526;11.536;2023-07-31T06:55:45;18.40;72.20
51878;SHT31;37911;51.526;11.536;2023-07-31T06:58:48;18.52;71.84
51878;SHT31;37911;51.526;11.536;2023-07-31T07:01:52;18.63;71.67
51878;SHT31;37911;51.526;11.536;2023-07-31T07:04:59;18.73;71.13
51878;SHT31;37911;51.526;11.536;2023-07-31T07:08:03;18.73;70.79
51878;SHT31;37911;51.526;11.536;2023-07-31T07:11:07;18.67;70.91
51878;SHT31;37911;51.526;11.536;2023-07-31T07:14:11;18.63;70.93
51878;SHT31;37911;51.526;11.536;2023-07-31T07:17:14;18.64;71.30
51878;SHT31;37911;51.526;11.536;2023-07-31T07:20:20;18.63;71.22
51878;SHT31;37911;51.526;11.536;2023-07-31T07:23:24;18.60;71.36
51878;SHT31;37911;51.526;11.536;2023-07-31T07:26:27;18.63;71.10
51878;SHT31;37911;51.526;11.536;2023-07-31T07:29:31;18.70;71.15
51878;SHT31;37911;51.526;11.536;2023-07-31T07:32:34;18.84;70.59
51878;SHT31;37911;51.526;11.536;2023-07-31T07:35:40;18.96;70.33
51878;SHT31;37911;51.526;11.536;2023-07-31T07:38:44;19.04;70.00
51878;SHT31;37911;51.526;11.536;2023-07-31T07:41:47;19.12;70.41
51878;SHT31;37911;51.526;11.536;2023-07-31T07:44:51;19.17;70.24
51878;SHT31;37911;51.526;11.536;2023-07-31T07:47:55;19.10;69.91
51878;SHT31;37911;51.526;11.536;2023-07-31T07:51:02;19.14;70.18
51878;SHT31;37911;51.526;11.536;2023-07-31T07:54:05;19.17;69.92
51878;SHT31;37911;51.526;11.536;2023-07-31T07:57:09;19.22;69.90
51878;SHT31;37911;51.526;11.536;2023-07-31T08:00:13;19.21;69.50
51878;SHT31;37911;51.526;11.536;2023-07-31T08:03:18;19.22;69.74
51878;SHT31;37911;51.526;11.536;2023-07-31T08:06:24;19.31;69.53
51878;SHT31;37911;51.526;11.536;2023-07-31T08:09:30;19.27;69.14
51878;SHT31;37911;51.526;11.536;2023-07-31T08:12:33;19.24;69.18
51878;SHT31;37911;51.526;11.536;2023-07-31T08:15:36;19.17;69.52
51878;SHT31;37911;51.526;11.536;2023-07-31T08:18:41;19.12;69.45
51878;SHT31;37911;51.526;11.536;2023-07-31T08:21:47;19.12;69.47
51878;SHT31;37911;51.526;11.536;2023-07-31T08:24:51;19.06;69.81
51878;SHT31;37911;51.526;11.536;2023-07-31T08:27:54;19.14;69.71
51878;SHT31;37911;51.526;11.536;2023-07-31T08:30:58;19.14;69.62
51878;SHT31;37911;51.526;11.536;2023-07-31T08:34:01;19.14;69.82
51878;SHT31;37911;51.526;11.536;2023-07-31T08:37:08;19.18;69.93
51878;SHT31;37911;51.526;11.536;2023-07-31T08:40:12;19.08;70.78
51878;SHT31;37911;51.526;11.536;2023-07-31T08:43:15;19.00;70.91
51878;SHT31;37911;51.526;11.536;2023-07-31T08:46:20;19.01;70.92
51878;SHT31;37911;51.526;11.536;2023-07-31T08:49:26;18.97;71.39
51878;SHT31;37911;51.526;11.536;2023-07-31T08:52:33;18.88;72.49
51878;SHT31;37911;51.526;11.536;2023-07-31T08:55:38;18.71;74.76
51878;SHT31;37911;51.526;11.536;2023-07-31T08:58:43;18.43;77.06
51878;SHT31;37911;51.526;11.536;2023-07-31T09:01:50;18.37;77.30
51878;SHT31;37911;51.526;11.536;2023-07-31T09:04:58;18.56;77.79
51878;SHT31;37911;51.526;11.536;2023-07-31T09:08:05;18.76;76.35
51878;SHT31;37911;51.526;11.536;2023-07-31T09:11:12;18.84;75.18
51878;SHT31;37911;51.526;11.536;2023-07-31T09:14:17;19.04;74.46
51878;SHT31;37911;51.526;11.536;2023-07-31T09:17:28;19.31;73.57
51878;SHT31;37911;51.526;11.536;2023-07-31T09:20:33;19.38;71.90
51878;SHT31;37911;51.526;11.536;2023-07-31T09:23:44;19.49;72.06
51878;SHT31;37911;51.526;11.536;2023-07-31T09:26:53;19.65;71.78
51878;SHT31;37911;51.526;11.536;2023-07-31T09:29:58;19.89;70.14
51878;SHT31;37911;51.526;11.536;2023-07-31T09:33:04;20.12;69.10
51878;SHT31;37911;51.526;11.536;2023-07-31T09:36:07;20.17;68.37
51878;SHT31;37911;51.526;11.536;2023-07-31T09:39:15;20.08;67.07
51878;SHT31;37911;51.526;11.536;2023-07-31T09:42:25;20.09;67.79
51878;SHT31;37911;51.526;11.536;2023-07-31T09:45:34;20.12;67.29
51878;SHT31;37911;51.526;11.536;2023-07-31T09:48:38;20.10;66.49
51878;SHT31;37911;51.526;11.536;2023-07-31T09:51:42;20.12;66.63
51878;SHT31;37911;51.526;11.536;2023-07-31T09:54:48;20.23;66.58
51878;SHT31;37911;51.526;11.536;2023-07-31T09:57:53;20.45;66.43
51878;SHT31;37911;51.526;11.536;2023-07-31T10:00:58;20.54;65.35
51878;SHT31;37911;51.526;11.536;2023-07-31T10:04:04;20.74;65.54
51878;SHT31;37911;51.526;11.536;2023-07-31T10:07:08;21.08;64.13
51878;SHT31;37911;51.526;11.536;2023-07-31T10:10:15;21.32;63.42
51878;SHT31;37911;51.526;11.536;2023-07-31T10:13:19;21.25;63.34
51878;SHT31;37911;51.526;11.536;2023-07-31T10:16:23;21.18;63.83
51878;SHT31;37911;51.526;11.536;2023-07-31T10:19:27;21.14;63.89
51878;SHT31;37911;51.526;11.536;2023-07-31T10:22:32;21.18;64.12
51878;SHT31;37911;51.526;11.536;2023-07-31T10:25:39;21.25;63.83
51878;SHT31;37911;51.526;11.536;2023-07-31T10:28:44;21.17;63.25
51878;SHT31;37911;51.526;11.536;2023-07-31T10:31:50;21.14;63.75
51878;SHT31;37911;51.526;11.536;2023-07-31T10:34:55;21.08;64.11
51878;SHT31;37911;51.526;11.536;2023-07-31T10:38:09;20.91;63.83
51878;SHT31;37911;51.526;11.536;2023-07-31T10:41:16;20.65;64.12
51878;SHT31;37911;51.526;11.536;2023-07-31T10:44:20;20.68;64.32
51878;SHT31;37911;51.526;11.536;2023-07-31T10:47:23;20.71;64.15
51878;SHT31;37911;51.526;11.536;2023-07-31T10:50:27;20.84;63.85
51878;SHT31;37911;51.526;11.536;2023-07-31T10:53:34;20.88;63.73
51878;SHT31;37911;51.526;11.536;2023-07-31T10:56:44;20.91;63.16
51878;SHT31;37911;51.526;11.536;2023-07-31T10:59:50;20.94;62.62
51878;SHT31;37911;51.526;11.536;2023-07-31T11:03:00;20.97;62.52
51878;SHT31;37911;51.526;11.536;2023-07-31T11:06:06;21.11;62.76
51878;SHT31;37911;51.526;11.536;2023-07-31T11:09:13;21.11;62.30
51878;SHT31;37911;51.526;11.536;2023-07-31T11:12:21;21.21;61.76
51878;SHT31;37911;51.526;11.536;2023-07-31T11:15:26;21.27;62.03
51878;SHT31;37911;51.526;11.536;2023-07-31T11:18:31;21.22;62.12
51878;SHT31;37911;51.526;11.536;2023-07-31T11:21:35;21.24;61.59
51878;SHT31;37911;51.526;11.536;2023-07-31T11:24:41;21.24;61.06
51878;SHT31;37911;51.526;11.536;2023-07-31T11:27:49;21.41;61.08
51878;SHT31;37911;51.526;11.536;2023-07-31T11:30:55;21.55;60.39
51878;SHT31;37911;51.526;11.536;2023-07-31T11:34:05;21.76;59.59
51878;SHT31;37911;51.526;11.536;2023-07-31T11:37:10;22.01;58.68
51878;SHT31;37911;51.526;11.536;2023-07-31T11:40:14;22.09;58.42
51878;SHT31;37911;51.526;11.536;2023-07-31T11:43:22;22.20;58.67
51878;SHT31;37911;51.526;11.536;2023-07-31T11:46:27;22.39;58.30
51878;SHT31;37911;51.526;11.536;2023-07-31T11:49:31;22.61;57.67
51878;SHT31;37911;51.526;11.536;2023-07-31T11:52:38;22.55;57.79
51878;SHT31;37911;51.526;11.536;2023-07-31T11:55:43;22.90;57.34
51878;SHT31;37911;51.526;11.536;2023-07-31T11:58:53;22.78;57.06
51878;SHT31;37911;51.526;11.536;2023-07-31T12:01:57;22.68;57.67
51878;SHT31;37911;51.526;11.536;2023-07-31T12:05:01;22.96;55.89
51878;SHT31;37911;51.526;11.536;2023-07-31T12:08:09;23.09;55.41
51878;SHT31;37911;51.526;11.536;2023-07-31T12:11:13;22.90;55.32
51878;SHT31;37911;51.526;11.536;2023-07-31T12:14:24;22.53;56.40
51878;SHT31;37911;51.526;11.536;2023-07-31T12:17:29;22.41;57.78
51878;SHT31;37911;51.526;11.536;2023-07-31T12:20:32;22.34;57.82
51878;SHT31;37911;51.526;11.536;2023-07-31T12:23:37;22.40;57.94
51878;SHT31;37911;51.526;11.536;2023-07-31T12:26:45;22.44;57.88
51878;SHT31;37911;51.526;11.536;2023-07-31T12:29:52;22.48;58.41
51878;SHT31;37911;51.526;11.536;2023-07-31T12:32:55;22.71;58.10
51878;SHT31;37911;51.526;11.536;2023-07-31T12:36:01;22.74;58.07
51878;SHT31;37911;51.526;11.536;2023-07-31T12:39:05;22.71;58.29
51878;SHT31;37911;51.526;11.536;2023-07-31T12:42:08;22.84;57.94
51878;SHT31;37911;51.526;11.536;2023-07-31T12:45:16;22.81;56.77
51878;SHT31;37911;51.526;11.536;2023-07-31T12:48:21;22.51;56.99
51878;SHT31;37911;51.526;11.536;2023-07-31T12:51:25;22.55;56.91
51878;SHT31;37911;51.526;11.536;2023-07-31T12:54:28;22.61;57.11
51878;SHT31;37911;51.526;11.536;2023-07-31T12:57:34;22.71;57.21
51878;SHT31;37911;51.526;11.536;2023-07-31T13:00:40;22.90;56.62
51878;SHT31;37911;51.526;11.536;2023-07-31T13:03:43;22.98;56.28
51878;SHT31;37911;51.526;11.536;2023-07-31T13:06:47;22.99;56.25
51878;SHT31;37911;51.526;11.536;2023-07-31T13:09:52;22.87;56.92
51878;SHT31;37911;51.526;11.536;2023-07-31T13:12:55;22.71;57.09
51878;SHT31;37911;51.526;11.536;2023-07-31T13:16:01;22.54;57.26
51878;SHT31;37911;51.526;11.536;2023-07-31T13:19:06;22.51;57.48
51878;SHT31;37911;51.526;11.536;2023-07-31T13:22:10;22.79;56.96
51878;SHT31;37911;51.526;11.536;2023-07-31T13:25:13;23.23;55.90
51878;SHT31;37911;51.526;11.536;2023-07-31T13:28:17;23.28;54.87
51878;SHT31;37911;51.526;11.536;2023-07-31T13:31:23;23.32;54.66
51878;SHT31;37911;51.526;11.536;2023-07-31T13:34:28;22.96;55.28
51878;SHT31;37911;51.526;11.536;2023-07-31T13:37:31;22.58;56.54
51878;SHT31;37911;51.526;11.536;2023-07-31T13:40:35;22.41;57.26
51878;SHT31;37911;51.526;11.536;2023-07-31T13:43:38;22.74;56.65
51878;SHT31;37911;51.526;11.536;2023-07-31T13:46:44;22.72;56.05
51878;SHT31;37911;51.526;11.536;2023-07-31T13:49:48;22.91;55.98
51878;SHT31;37911;51.526;11.536;2023-07-31T13:52:51;22.94;56.71
51878;SHT31;37911;51.526;11.536;2023-07-31T13:55:55;22.83;56.87
51878;SHT31;37911;51.526;11.536;2023-07-31T13:58:59;22.69;56.75
51878;SHT31;37911;51.526;11.536;2023-07-31T14:02:06;22.51;56.33
51878;SHT31;37911;51.526;11.536;2023-07-31T14:05:09;22.29;57.25
51878;SHT31;37911;51.526;11.536;2023-07-31T14:08:13;22.10;58.10
51878;SHT31;37911;51.526;11.536;2023-07-31T14:11:16;22.25;58.36
51878;SHT31;37911;51.526;11.536;2023-07-31T14:14:20;22.25;57.62
51878;SHT31;37911;51.526;11.536;2023-07-31T14:17:26;22.27;58.27
51878;SHT31;37911;51.526;11.536;2023-07-31T14:20:29;22.47;58.13
51878;SHT31;37911;51.526;11.536;2023-07-31T14:23:33;22.57;57.86
51878;SHT31;37911;51.526;11.536;2023-07-31T14:26:38;22.51;57.44
51878;SHT31;37911;51.526;11.536;2023-07-31T14:29:42;22.60;57.78
51878;SHT31;37911;51.526;11.536;2023-07-31T14:32:48;22.76;57.20
51878;SHT31;37911;51.526;11.536;2023-07-31T14:35:51;22.83;56.86
51878;SHT31;37911;51.526;11.536;2023-07-31T14:38:55;22.67;57.03
51878;SHT31;37911;51.526;11.536;2023-07-31T14:41:58;22.64;58.08
51878;SHT31;37911;51.526;11.536;2023-07-31T14:45:03;22.61;58.06
51878;SHT31;37911;51.526;11.536;2023-07-31T14:48:09;22.51;58.82
51878;SHT31;37911;51.526;11.536;2023-07-31T14:51:13;22.27;59.28
51878;SHT31;37911;51.526;11.536;2023-07-31T14:54:18;22.63;58.64
51878;SHT31;37911;51.526;11.536;2023-07-31T14:57:21;23.06;57.92
51878;SHT31;37911;51.526;11.536;2023-07-31T15:00:27;23.33;57.72
51878;SHT31;37911;51.526;11.536;2023-07-31T15:03:33;23.29;57.91
51878;SHT31;37911;51.526;11.536;2023-07-31T15:06:36;23.11;58.51
51878;SHT31;37911;51.526;11.536;2023-07-31T15:09:40;23.01;58.98
51878;SHT31;37911;51.526;11.536;2023-07-31T15:12:43;23.01;59.03
51878;SHT31;37911;51.526;11.536;2023-07-31T15:15:47;22.88;59.37
51878;SHT31;37911;51.526;11.536;2023-07-31T15:18:53;22.83;60.00
51878;SHT31;37911;51.526;11.536;2023-07-31T15:21:56;22.81;59.41
51878;SHT31;37911;51.526;11.536;2023-07-31T15:25:00;22.81;59.49
51878;SHT31;37911;51.526;11.536;2023-07-31T15:28:03;22.85;59.13
51878;SHT31;37911;51.526;11.536;2023-07-31T15:31:08;22.94;58.74
51878;SHT31;37911;51.526;11.536;2023-07-31T15:34:15;22.90;58.92
51878;SHT31;37911;51.526;11.536;2023-07-31T15:37:19;22.87;58.90
51878;SHT31;37911;51.526;11.536;2023-07-31T15:40:23;22.69;59.20
51878;SHT31;37911;51.526;11.536;2023-07-31T15:43:26;22.68;59.23
51878;SHT31;37911;51.526;11.536;2023-07-31T15:46:30;22.55;58.93
51878;SHT31;37911;51.526;11.536;2023-07-31T15:49:37;22.39;59.30
51878;SHT31;37911;51.526;11.536;2023-07-31T15:52:41;22.31;59.49
51878;SHT31;37911;51.526;11.536;2023-07-31T15:55:44;22.27;59.19
51878;SHT31;37911;51.526;11.536;2023-07-31T15:58:47;22.24;59.31
51878;SHT31;37911;51.526;11.536;2023-07-31T16:01:51;22.17;59.52
51878;SHT31;37911;51.526;11.536;2023-07-31T16:04:57;22.10;59.44
51878;SHT31;37911;51.526;11.536;2023-07-31T16:08:01;22.01;59.48
51878;SHT31;37911;51.526;11.536;2023-07-31T16:11:04;22.01;59.71
51878;SHT31;37911;51.526;11.536;2023-07-31T16:14:07;22.07;59.28
51878;SHT31;37911;51.526;11.536;2023-07-31T16:17:13;22.00;59.54
51878;SHT31;37911;51.526;11.536;2023-07-31T16:20:20;21.93;59.65
51878;SHT31;37911;51.526;11.536;2023-07-31T16:23:23;21.92;59.81
51878;SHT31;37911;51.526;11.536;2023-07-31T16:26:27;21.99;59.86
51878;SHT31;37911;51.526;11.536;2023-07-31T16:29:30;22.01;59.41
51878;SHT31;37911;51.526;11.536;2023-07-31T16:32:34;21.99;59.93
51878;SHT31;37911;51.526;11.536;2023-07-31T16:35:40;21.93;59.78
51878;SHT31;37911;51.526;11.536;2023-07-31T16:38:43;21.88;59.44
51878;SHT31;37911;51.526;11.536;2023-07-31T16:41:47;21.88;59.79
51878;SHT31;37911;51.526;11.536;2023-07-31T16:44:50;21.85;59.63
51878;SHT31;37911;51.526;11.536;2023-07-31T16:47:53;21.86;59.34
51878;SHT31;37911;51.526;11.536;2023-07-31T16:51:00;21.83;59.71
51878;SHT31;37911;51.526;11.536;2023-07-31T16:54:05;21.72;60.12
51878;SHT31;37911;51.526;11.536;2023-07-31T16:57:08;21.69;60.24
51878;SHT31;37911;51.526;11.536;2023-07-31T17:00:12;21.62;60.43
51878;SHT31;37911;51.526;11.536;2023-07-31T17:03:16;21.67;60.33
51878;SHT31;37911;51.526;11.536;2023-07-31T17:06:22;21.63;60.65
51878;SHT31;37911;51.526;11.536;2023-07-31T17:09:26;21.63;61.08
51878;SHT31;37911;51.526;11.536;2023-07-31T17:12:30;21.60;60.80
51878;SHT31;37911;51.526;11.536;2023-07-31T17:15:34;21.59;60.96
51878;SHT31;37911;51.526;11.536;2023-07-31T17:18:37;21.56;60.79
51878;SHT31;37911;51.526;11.536;2023-07-31T17:21:43;21.58;60.90
51878;SHT31;37911;51.526;11.536;2023-07-31T17:24:47;21.50;61.01
51878;SHT31;37911;51.526;11.536;2023-07-31T17:27:50;21.56;60.88
51878;SHT31;37911;51.526;11.536;2023-07-31T17:30:54;21.48;61.12
51878;SHT31;37911;51.526;11.536;2023-07-31T17:33:57;21.43;61.57
51878;SHT31;37911;51.526;11.536;2023-07-31T17:37:05;21.39;61.77
51878;SHT31;37911;51.526;11.536;2023-07-31T17:40:09;21.42;61.86
51878;SHT31;37911;51.526;11.536;2023-07-31T17:43:13;21.39;61.92
51878;SHT31;37911;51.526;11.536;2023-07-31T17:46:16;21.36;62.05
51878;SHT31;37911;51.526;11.536;2023-07-31T17:49:20;21.41;62.01
51878;SHT31;37911;51.526;11.536;2023-07-31T17:52:26;21.34;62.44
51878;SHT31;37911;51.526;11.536;2023-07-31T17:55:29;21.32;62.15
51878;SHT31;37911;51.526;11.536;2023-07-31T17:58:33;21.28;62.25
51878;SHT31;37911;51.526;11.536;2023-07-31T18:01:36;21.28;62.20
51878;SHT31;37911;51.526;11.536;2023-07-31T18:04:40;21.22;62.24
51878;SHT31;37911;51.526;11.536;2023-07-31T18:07:46;21.25;62.24
51878;SHT31;37911;51.526;11.536;2023-07-31T18:10:49;21.22;62.30
51878;SHT31;37911;51.526;11.536;2023-07-31T18:13:53;21.19;62.56
51878;SHT31;37911;51.526;11.536;2023-07-31T18:16:56;21.18;62.66
51878;SHT31;37911;51.526;11.536;2023-07-31T18:20:01;21.17;62.83
51878;SHT31;37911;51.526;11.536;2023-07-31T18:23:08;21.15;62.61
51878;SHT31;37911;51.526;11.536;2023-07-31T18:26:12;21.17;62.78
51878;SHT31;37911;51.526;11.536;2023-07-31T18:29:15;21.24;62.83
51878;SHT31;37911;51.526;11.536;2023-07-31T18:32:19;21.21;62.70
51878;SHT31;37911;51.526;11.536;2023-07-31T18:35:22;21.19;62.91
51878;SHT31;37911;51.526;11.536;2023-07-31T18:38:29;21.18;62.37
51878;SHT31;37911;51.526;11.536;2023-07-31T18:41:33;21.17;62.47
51878;SHT31;37911;51.526;11.536;2023-07-31T18:44:36;21.12;62.78
51878;SHT31;37911;51.526;11.536;2023-07-31T18:47:39;21.09;63.25
51878;SHT31;37911;51.526;11.536;2023-07-31T18:50:43;21.05;63.67
51878;SHT31;37911;51.526;11.536;2023-07-31T18:53:49;21.01;64.10
51878;SHT31;37911;51.526;11.536;2023-07-31T18:56:54;21.01;65.35
51878;SHT31;37911;51.526;11.536;2023-07-31T18:59:57;21.07;64.46
51878;SHT31;37911;51.526;11.536;2023-07-31T19:03:01;21.07;63.45
51878;SHT31;37911;51.526;11.536;2023-07-31T19:06:04;21.05;63.44